Time;durP1;ratioP1;P1;durP2;ratioP2;P2;SDS_P1;SDS_P2;PMS_P1;PMS_P2;Temp;Humidity;BMP_temperature;BMP_pressure;BME280_temperature;BME280_humidity;BME280_pressure;Samples;Min_cycle;Max_cycle;Signal;HPM_P1;HPM_P2
2022/01/02 04:32:07;;;;;;;8.13;6.50;;;;;;;9.72;59.61;99144.41;7429995;23;20616;-82
2022/01/02 04:35:29;;;;;;;9.63;8.00;;;;;;;10.21;59.14;99201.94;6778220;29;20206;-83
2022/01/02 04:38:50;;;;;;;13.57;8.00;;;;;;;10.18;58.98;99196.91;6762145;29;20229;-84
2022/01/02 04:42:12;;;;;;;10.57;7.70;;;;;;;9.44;60.23;99160.47;6783846;29;20262;-84
2022/01/02 04:45:34;;;;;;;11.60;7.43;;;;;;;9.98;60.85;99202.06;6793946;29;20204;-85
2022/01/02 04:48:57;;;;;;;12.33;8.77;;;;;;;9.87;61.01;99196.38;6796813;29;20279;-84
2022/01/02 04:52:19;;;;;;;10.77;8.23;;;;;;;9.21;60.83;99094.41;6786994;29;20277;-85
2022/01/02 04:55:40;;;;;;;10.07;8.20;;;;;;;10.09;60.50;99198.09;6787539;29;20221;-83
2022/01/02 04:59:02;;;;;;;10.60;8.43;;;;;;;10.35;58.53;99174.06;6787141;29;20218;-84
2022/01/02 05:02:23;;;;;;;9.70;7.83;;;;;;;10.13;59.01;99170.56;6786329;29;20241;-82
2022/01/02 05:05:46;;;;;;;11.77;8.13;;;;;;;9.48;60.75;99147.47;6785572;29;20677;-84
2022/01/02 05:09:09;;;;;;;10.00;7.93;;;;;;;9.48;61.66;99185.16;6785642;29;20700;-82
2022/01/02 05:12:31;;;;;;;10.67;7.93;;;;;;;10.00;59.66;99156.09;6787072;29;20234;-82
2022/01/02 05:15:52;;;;;;;9.00;7.70;;;;;;;10.03;60.41;99166.50;6784757;29;20221;-85
2022/01/02 05:19:14;;;;;;;11.07;7.27;;;;;;;9.97;60.48;99138.47;6786108;29;20564;-83
2022/01/02 05:22:37;;;;;;;7.90;7.10;;;;;;;10.31;60.20;99162.00;6786061;29;20728;-84
2022/01/02 05:25:59;;;;;;;9.83;7.23;;;;;;;10.29;60.14;99164.06;6785232;29;20376;-83
2022/01/02 05:29:20;;;;;;;11.53;7.33;;;;;;;9.80;60.93;99139.75;6785474;29;20225;-85
2022/01/02 05:32:42;;;;;;;8.93;7.17;;;;;;;10.06;60.32;99148.13;6785255;29;20743;-85
2022/01/02 05:36:04;;;;;;;9.00;7.27;;;;;;;9.45;62.43;99137.91;6783571;29;20245;-83
2022/01/02 05:39:27;;;;;;;8.17;6.47;;;;;;;9.93;61.48;99149.81;6785598;29;20210;-85
2022/01/02 05:42:48;;;;;;;8.27;6.77;;;;;;;9.92;60.28;99092.41;6784381;29;20240;-82
2022/01/02 05:46:10;;;;;;;9.00;6.90;;;;;;;9.77;61.09;99148.22;6784885;29;20213;-85
2022/01/02 05:49:31;;;;;;;7.67;6.80;;;;;;;10.00;60.55;99148.03;6791772;29;20696;-83
2022/01/02 05:52:53;;;;;;;8.53;7.03;;;;;;;9.77;61.12;99110.53;6791444;29;20230;-85
2022/01/02 05:56:16;;;;;;;8.77;6.87;;;;;;;10.13;60.08;99137.38;6790142;29;20218;-85
2022/01/02 05:59:39;;;;;;;9.77;7.00;;;;;;;9.61;61.34;99135.00;6788822;29;20208;-82
2022/01/02 06:03:01;;;;;;;9.50;7.40;;;;;;;9.60;61.18;99119.88;6789268;29;20304;-84
2022/01/02 06:06:22;;;;;;;9.67;8.03;;;;;;;10.14;60.35;99112.09;6787770;29;20666;-85
2022/01/02 06:09:44;;;;;;;7.93;6.90;;;;;;;9.58;60.17;99099.56;6789168;29;20207;-85
2022/01/02 06:13:07;;;;;;;8.37;7.57;;;;;;;9.15;61.08;99119.34;6789419;29;20242;-85
2022/01/02 06:16:30;;;;;;;7.97;7.17;;;;;;;9.37;60.60;99121.03;6787153;29;20214;-85
2022/01/02 06:19:52;;;;;;;9.40;7.57;;;;;;;9.05;60.83;99051.56;6789698;29;20214;-83
2022/01/02 06:23:13;;;;;;;10.17;8.40;;;;;;;8.89;60.97;99088.63;6789117;29;20247;-85
2022/01/02 06:26:35;;;;;;;9.10;7.77;;;;;;;9.13;61.49;99103.41;6788917;29;20241;-84
2022/01/02 06:29:58;;;;;;;11.07;8.37;;;;;;;9.21;61.41;99103.28;6790009;29;20206;-86
2022/01/02 06:33:19;;;;;;;8.87;7.27;;;;;;;9.25;60.89;99109.97;6789400;29;20244;-83
2022/01/02 06:36:41;;;;;;;10.00;7.87;;;;;;;9.46;61.37;99096.50;6789876;29;20215;-84
2022/01/02 06:40:03;;;;;;;10.03;7.60;;;;;;;8.66;61.95;99087.88;6789547;29;20658;-83
2022/01/02 06:43:25;;;;;;;11.40;8.10;;;;;;;9.43;61.86;99098.75;6788445;29;20267;-82
2022/01/02 06:46:49;;;;;;;9.33;8.10;;;;;;;9.50;60.25;99099.69;6788995;29;20215;-84
2022/01/02 06:50:12;;;;;;;10.93;8.70;;;;;;;9.52;60.35;99101.13;6788212;29;20233;-85
2022/01/02 06:53:34;;;;;;;8.07;7.27;;;;;;;9.17;61.05;99096.59;6788870;29;20562;-85
2022/01/02 06:56:55;;;;;;;8.13;7.20;;;;;;;9.29;61.96;99110.41;6788388;29;20228;-84
2022/01/02 07:00:17;;;;;;;10.17;8.27;;;;;;;9.74;59.94;99104.69;6789612;29;20224;-85
2022/01/02 07:03:40;;;;;;;10.33;8.07;;;;;;;9.65;59.70;99089.69;6787409;29;20708;-83
2022/01/02 07:07:02;;;;;;;12.00;10.80;;;;;;;9.40;60.87;99110.72;6787074;29;20217;-86
2022/01/02 07:10:23;;;;;;;12.03;10.53;;;;;;;9.67;59.55;99098.38;6786917;29;20678;-84
2022/01/02 07:13:45;;;;;;;9.13;7.13;;;;;;;9.34;59.36;99102.59;6787511;29;20213;-83
2022/01/02 07:17:07;;;;;;;8.50;7.70;;;;;;;9.24;59.12;99084.09;6785762;29;20520;-82
2022/01/02 07:20:30;;;;;;;7.93;7.13;;;;;;;9.28;60.52;99079.16;6786005;29;20586;-82
2022/01/02 07:23:52;;;;;;;11.63;9.50;;;;;;;9.19;59.66;99051.53;6785677;29;20230;-84
2022/01/02 07:27:14;;;;;;;11.07;9.90;;;;;;;8.87;61.72;99091.47;6789005;29;20212;-88
2022/01/02 07:30:36;;;;;;;12.33;8.73;;;;;;;9.20;61.17;99058.56;6789495;29;20247;-85
2022/01/02 07:34:00;;;;;;;10.87;8.20;;;;;;;8.98;61.39;99091.81;6785611;29;20215;-85
2022/01/02 07:37:34;;;;;;;9.13;7.97;;;;;;;9.58;60.80;99073.44;6786616;29;20217;-83
2022/01/02 07:40:55;;;;;;;10.47;7.73;;;;;;;9.45;60.53;99046.41;6761258;29;20243;-84
2022/01/02 07:44:17;;;;;;;8.80;7.17;;;;;;;9.36;61.58;99073.63;6745160;29;20585;-83
2022/01/02 07:47:39;;;;;;;10.27;7.47;;;;;;;9.07;62.39;99040.63;6746025;29;20219;-85
2022/01/02 07:51:01;;;;;;;10.80;7.77;;;;;;;9.81;61.96;99084.03;6753005;29;20596;-84
2022/01/02 07:54:30;;;;;;;9.93;6.87;;;;;;;9.98;61.38;99097.03;6759975;29;20209;-81
2022/01/02 07:57:52;;;;;;;8.57;7.13;;;;;;;9.73;61.05;99071.53;6760955;29;20568;-82
2022/01/02 08:01:17;;;;;;;8.80;7.27;;;;;;;10.12;60.32;99087.22;6754780;29;20254;-84
2022/01/02 08:04:40;;;;;;;11.87;8.47;;;;;;;9.38;60.52;98991.69;6747167;29;20660;-83
2022/01/02 08:08:03;;;;;;;8.60;7.73;;;;;;;9.94;60.62;99084.16;6730983;29;20243;-82
2022/01/02 08:11:29;;;;;;;8.43;7.53;;;;;;;9.94;60.93;99076.06;6731943;29;20241;-83
2022/01/02 08:14:52;;;;;;;6.73;5.60;;;;;;;10.67;58.84;99079.09;6731314;29;20319;-83
2022/01/02 08:18:17;;;;;;;8.57;5.73;;;;;;;10.66;58.84;99053.16;6734726;29;20214;-85
2022/01/02 08:25:29;;;;;;;7.10;5.47;;;;;;;11.12;58.25;99057.75;6703505;29;20216;-84
2022/01/02 08:28:54;;;;;;;9.47;7.87;;;;;;;10.45;59.50;99080.22;6734509;29;20214;-84
2022/01/02 08:32:17;;;;;;;8.47;7.47;;;;;;;10.84;58.77;99070.50;6745483;29;20233;-83
2022/01/02 08:35:41;;;;;;;9.30;7.53;;;;;;;10.73;58.69;99052.19;6771390;29;20213;-84
2022/01/02 08:39:04;;;;;;;6.53;5.90;;;;;;;11.05;59.54;99064.16;6772927;29;20219;-81
2022/01/02 08:42:26;;;;;;;10.03;7.00;;;;;;;11.34;58.19;99070.03;6765999;29;20625;-80
2022/01/02 08:45:49;;;;;;;9.13;6.97;;;;;;;11.64;58.38;99066.00;6742300;29;20214;-80
2022/01/02 08:49:11;;;;;;;10.37;7.00;;;;;;;14.19;52.50;99054.13;6753930;29;20218;-81
2022/01/02 08:52:33;;;;;;;8.93;7.63;;;;;;;14.28;49.90;99058.19;6756884;29;20253;-81
2022/01/02 08:55:55;;;;;;;9.70;7.53;;;;;;;13.19;53.40;99066.84;6758445;29;20207;-80
2022/01/02 08:59:21;;;;;;;10.00;7.50;;;;;;;12.54;54.44;99061.63;6759757;29;20222;-81
2022/01/02 09:02:44;;;;;;;7.67;6.43;;;;;;;13.19;53.73;99060.59;6762265;29;20667;-81
2022/01/02 09:06:06;;;;;;;7.33;6.53;;;;;;;12.88;54.60;99060.47;6743426;29;20215;-81
2022/01/02 09:09:29;;;;;;;7.77;5.73;;;;;;;13.02;54.53;99049.44;6752251;29;20669;-82
2022/01/02 09:12:51;;;;;;;7.10;6.40;;;;;;;12.66;55.43;99045.56;6749978;29;20232;-80
2022/01/02 09:16:15;;;;;;;8.30;7.40;;;;;;;13.10;55.56;99062.72;6756889;29;20319;-80
2022/01/02 09:19:38;;;;;;;7.17;6.37;;;;;;;12.79;56.09;99073.41;6761268;29;20212;-82
2022/01/02 09:23:02;;;;;;;8.97;6.80;;;;;;;13.44;55.49;99072.31;6765738;29;20318;-81
2022/01/02 09:26:24;;;;;;;7.27;6.57;;;;;;;13.77;54.96;99070.25;6757958;29;20236;-82
2022/01/02 09:29:45;;;;;;;10.50;8.33;;;;;;;14.20;54.02;99060.34;6753503;29;20220;-82
2022/01/02 09:33:08;;;;;;;6.70;5.97;;;;;;;14.29;53.72;99064.47;6759663;29;20242;-82
2022/01/02 09:36:31;;;;;;;8.60;7.77;;;;;;;14.42;53.30;99053.47;6753283;29;20214;-83
2022/01/02 09:39:53;;;;;;;7.73;6.90;;;;;;;13.88;53.89;99069.56;6766005;29;20275;-83
2022/01/02 09:43:16;;;;;;;10.50;7.60;;;;;;;13.74;54.53;99059.88;6752507;29;20716;-82
2022/01/02 09:46:41;;;;;;;9.63;7.60;;;;;;;14.15;53.81;99062.91;6757954;29;20211;-81
2022/01/02 09:50:07;;;;;;;11.67;8.90;;;;;;;14.00;54.19;99049.66;6767252;29;20216;-81
2022/01/02 09:53:30;;;;;;;20.00;13.87;;;;;;;13.69;55.46;99087.59;6777124;29;20231;-81
2022/01/02 09:56:53;;;;;;;18.97;13.43;;;;;;;14.05;55.07;99078.81;6765080;29;20271;-84
2022/01/02 10:00:19;;;;;;;12.57;10.17;;;;;;;14.16;55.29;99070.78;6765934;29;20599;-82
2022/01/02 10:03:42;;;;;;;9.67;8.23;;;;;;;13.88;56.07;99064.97;6764274;29;20303;-84
2022/01/02 10:07:05;;;;;;;9.47;8.13;;;;;;;13.83;55.95;99061.25;6761310;29;20215;-85
2022/01/02 10:10:35;;;;;;;10.87;8.97;;;;;;;14.04;54.99;99050.84;6760885;29;20216;-83
2022/01/02 10:14:01;;;;;;;10.50;8.50;;;;;;;13.86;55.97;99045.38;6760477;29;20258;-84
2022/01/02 10:17:25;;;;;;;10.70;8.23;;;;;;;13.36;56.10;98958.84;6761219;29;20208;-85
2022/01/02 10:20:47;;;;;;;8.40;6.93;;;;;;;13.61;57.15;99060.78;6761089;29;20239;-84
2022/01/02 10:24:13;;;;;;;10.50;7.70;;;;;;;13.39;57.80;99061.34;6760954;29;20291;-84
2022/01/02 10:27:37;;;;;;;9.90;6.80;;;;;;;13.86;56.54;99055.41;6760957;29;20192;-84
2022/01/02 10:31:01;;;;;;;7.17;5.70;;;;;;;14.36;54.61;99032.66;6761026;29;20243;-82
2022/01/02 10:34:31;;;;;;;6.33;4.93;;;;;;;14.62;52.45;99030.53;6757961;29;20211;-85
2022/01/02 10:37:55;;;;;;;8.47;6.13;;;;;;;14.13;54.14;99038.69;6761163;29;20557;-82
2022/01/02 10:41:29;;;;;;;5.47;4.97;;;;;;;14.00;54.03;99025.25;6760777;29;20228;-82
2022/01/02 10:44:54;;;;;;;5.47;4.97;;;;;;;14.09;52.45;99009.56;6762303;29;20268;-84
2022/01/02 10:48:19;;;;;;;5.27;4.43;;;;;;;14.03;51.89;98994.13;6760680;29;20247;-85
2022/01/02 10:51:42;;;;;;;7.50;4.90;;;;;;;14.64;51.30;98995.03;6759786;29;20309;-83
2022/01/02 10:55:06;;;;;;;5.93;5.00;;;;;;;14.22;53.14;98980.44;6762267;29;20252;-85
2022/01/02 10:58:28;;;;;;;3.60;3.30;;;;;;;14.63;48.83;98966.22;6764480;29;20208;-82
2022/01/02 11:01:51;;;;;;;3.50;3.20;;;;;;;15.26;47.67;98976.44;6763546;29;20260;-84
2022/01/02 11:05:15;;;;;;;4.23;3.17;;;;;;;15.24;46.96;98978.59;6762858;29;20251;-84
2022/01/02 11:08:38;;;;;;;3.53;3.23;;;;;;;15.08;46.61;98971.06;6760608;29;20223;-83
2022/01/02 11:11:59;;;;;;;4.23;3.03;;;;;;;14.70;47.74;98956.94;6771370;29;20231;-83
2022/01/02 11:15:22;;;;;;;3.73;3.40;;;;;;;15.28;46.56;98955.31;6762765;29;20216;-81
2022/01/02 11:18:47;;;;;;;4.53;3.20;;;;;;;15.59;45.59;98985.00;6762351;29;20214;-83
2022/01/02 11:22:12;;;;;;;3.50;3.20;;;;;;;15.40;44.96;98985.28;6762040;29;20305;-85
2022/01/02 11:25:38;;;;;;;5.30;3.60;;;;;;;15.59;43.48;98970.56;6751535;29;20218;-82
2022/01/02 11:29:00;;;;;;;4.23;3.83;;;;;;;15.88;42.78;99005.84;6737003;29;20209;-84
2022/01/02 11:32:23;;;;;;;4.73;4.23;;;;;;;15.27;46.73;99005.28;6761923;29;20240;-82
2022/01/02 11:35:48;;;;;;;4.40;4.00;;;;;;;15.39;47.11;98989.88;6759667;29;20259;-83
2022/01/02 11:39:11;;;;;;;5.60;3.80;;;;;;;14.70;46.54;98985.97;6761104;29;20658;-83
2022/01/02 11:42:46;;;;;;;7.83;6.40;;;;;;;15.77;45.71;98984.91;6749029;29;20611;-85
2022/01/02 11:46:18;;;;;;;4.93;3.90;;;;;;;14.91;45.76;98951.03;6755201;29;20625;-83
2022/01/02 11:49:43;;;;;;;6.23;5.00;;;;;;;15.77;47.03;98963.16;6763520;29;20222;-82
2022/01/02 11:53:23;;;;;;;5.43;4.80;;;;;;;15.36;47.95;98967.78;6762240;29;20231;-84
2022/01/02 11:56:45;;;;;;;3.77;3.40;;;;;;;15.33;45.03;98951.94;6761783;29;20197;-84
2022/01/02 12:00:08;;;;;;;4.63;4.20;;;;;;;15.75;43.84;98945.41;6761552;29;20216;-82
2022/01/02 12:03:51;;;;;;;6.83;6.13;;;;;;;15.43;47.58;98963.06;6760776;29;20254;-81
2022/01/02 12:07:53;;;;;;;4.37;3.83;;;;;;;15.12;48.04;98938.84;6761734;29;20220;-82
2022/01/02 12:11:49;;;;;;;3.33;3.03;;;;;;;15.55;44.89;98940.31;6760667;29;20752;-83
2022/01/02 12:15:12;;;;;;;3.97;3.30;;;;;;;16.06;45.14;98931.47;6760603;29;20198;-83
2022/01/02 12:18:39;;;;;;;4.07;3.70;;;;;;;16.16;45.34;98923.56;6754414;29;20293;-82
2022/01/02 12:22:13;;;;;;;4.50;4.00;;;;;;;15.81;45.65;98947.19;6735144;29;20698;-82
2022/01/02 12:25:36;;;;;;;3.60;3.17;;;;;;;15.58;42.99;98857.47;6736279;29;20212;-82
2022/01/02 12:29:01;;;;;;;2.30;2.10;;;;;;;16.12;39.15;98876.97;6736688;29;20223;-82
2022/01/02 12:32:22;;;;;;;2.43;2.10;;;;;;;16.67;38.15;98885.50;6741982;29;20653;-82
2022/01/02 12:35:44;;;;;;;4.13;2.10;;;;;;;16.99;38.22;98873.06;6737620;29;20612;-83
2022/01/02 12:39:07;;;;;;;2.40;1.93;;;;;;;17.36;37.39;98847.84;6735838;29;20221;-83
2022/01/02 12:42:30;;;;;;;2.23;2.03;;;;;;;17.58;36.89;98850.69;6761960;29;20233;-82
2022/01/02 12:45:54;;;;;;;3.03;2.33;;;;;;;17.79;36.29;98863.53;6775125;29;20282;-82
2022/01/02 12:49:17;;;;;;;2.13;2.00;;;;;;;18.44;35.83;98856.31;6744749;29;20214;-83
2022/01/02 12:52:39;;;;;;;2.70;2.20;;;;;;;18.63;36.19;98871.31;6735266;29;20720;-81
2022/01/02 12:56:00;;;;;;;2.23;2.00;;;;;;;18.66;35.21;98863.44;6739526;29;20655;-81
2022/01/02 12:59:29;;;;;;;2.50;2.10;;;;;;;18.56;35.37;98866.03;6745427;29;20214;-82
2022/01/02 13:02:54;;;;;;;2.50;2.20;;;;;;;19.02;34.48;98887.34;6752943;29;20726;-82
2022/01/02 13:06:21;;;;;;;2.10;1.90;;;;;;;19.00;34.99;98883.19;6763794;29;20295;-82
2022/01/02 13:09:44;;;;;;;3.37;2.17;;;;;;;19.35;34.90;98869.94;6778476;29;20240;-83
2022/01/02 13:13:06;;;;;;;2.30;2.10;;;;;;;18.99;35.36;98865.16;6767203;29;20236;-82
2022/01/02 13:16:29;;;;;;;2.30;2.10;;;;;;;19.28;34.72;98858.38;6759690;29;20204;-82
2022/01/02 13:19:57;;;;;;;3.57;2.93;;;;;;;19.27;35.19;98854.81;6761855;29;20230;-82
2022/01/02 13:23:21;;;;;;;2.80;2.37;;;;;;;18.88;35.92;98834.16;6762598;29;20239;-82
2022/01/02 13:26:43;;;;;;;2.80;2.27;;;;;;;19.27;35.91;98827.47;6762626;29;20223;-82
2022/01/02 13:30:08;;;;;;;3.13;2.63;;;;;;;19.46;34.49;98831.44;6763007;29;20262;-82
2022/01/02 13:33:33;;;;;;;2.33;2.10;;;;;;;19.07;35.42;98815.50;6762677;29;20263;-82
2022/01/02 13:36:57;;;;;;;2.50;2.30;;;;;;;18.42;36.12;98732.88;6760115;29;20216;-84
2022/01/02 13:40:27;;;;;;;2.53;2.20;;;;;;;19.12;35.21;98807.34;6767068;29;20218;-82
2022/01/02 13:43:49;;;;;;;2.77;2.20;;;;;;;18.92;35.25;98802.50;6765895;29;20340;-83
2022/01/02 13:47:11;;;;;;;2.37;2.17;;;;;;;18.70;35.16;98793.53;6765164;29;20207;-83
2022/01/02 13:50:36;;;;;;;2.63;2.00;;;;;;;18.53;35.24;98783.78;6770939;29;20235;-84
2022/01/02 13:53:58;;;;;;;2.17;1.97;;;;;;;18.66;35.27;98791.59;6771187;29;20281;-83
2022/01/02 13:57:20;;;;;;;3.00;2.00;;;;;;;18.96;34.76;98806.38;6768107;29;20243;-83
2022/01/02 14:00:44;;;;;;;4.30;2.67;;;;;;;18.70;34.74;98777.16;6762723;29;20854;-83
2022/01/02 14:04:08;;;;;;;2.77;2.57;;;;;;;19.08;35.43;98787.06;6763279;29;20298;-82
2022/01/02 14:07:34;;;;;;;3.00;2.70;;;;;;;18.61;35.33;98758.75;6751854;29;20239;-83
2022/01/02 14:11:08;;;;;;;2.07;1.90;;;;;;;18.18;36.32;98762.34;6744328;29;20250;-83
2022/01/02 14:14:48;;;;;;;3.20;2.43;;;;;;;18.66;35.77;98806.06;6754712;29;20208;-82
2022/01/02 14:18:09;;;;;;;4.90;3.00;;;;;;;18.32;36.44;98801.00;6737516;29;20224;-82
2022/01/02 14:21:34;;;;;;;4.60;2.47;;;;;;;17.95;36.40;98805.41;6738743;29;20239;-83
2022/01/02 14:24:57;;;;;;;2.50;2.20;;;;;;;18.08;36.95;98794.13;6737855;29;20919;-81
2022/01/02 14:28:19;;;;;;;2.13;2.00;;;;;;;17.93;37.09;98811.13;6744532;29;20271;-82
2022/01/02 14:31:41;;;;;;;3.83;2.43;;;;;;;17.98;36.52;98775.72;6761360;29;20248;-83
2022/01/02 14:35:03;;;;;;;2.83;2.00;;;;;;;18.17;36.49;98822.63;6761559;29;20244;-81
2022/01/02 14:38:25;;;;;;;2.50;2.13;;;;;;;18.30;36.83;98806.72;6762514;29;20219;-82
2022/01/02 14:41:48;;;;;;;4.60;2.20;;;;;;;18.25;36.09;98836.66;6766705;29;20231;-81
2022/01/02 14:45:11;;;;;;;2.33;2.13;;;;;;;18.09;36.40;98823.91;6760152;29;20704;-82
2022/01/02 14:48:33;;;;;;;2.43;2.23;;;;;;;18.54;36.21;98835.44;6753309;29;20218;-80
2022/01/02 14:51:54;;;;;;;3.23;2.13;;;;;;;18.33;36.21;98827.25;6758884;29;20290;-81
2022/01/02 14:55:17;;;;;;;3.17;2.43;;;;;;;18.23;36.57;98843.47;6758387;29;20669;-82
2022/01/02 14:58:40;;;;;;;3.17;2.33;;;;;;;18.38;36.13;98847.25;6758725;29;20216;-83
2022/01/02 15:02:02;;;;;;;3.73;2.30;;;;;;;18.33;36.71;98838.97;6760442;29;20238;-82
2022/01/02 15:05:24;;;;;;;3.07;2.13;;;;;;;18.53;36.26;98846.59;6758923;29;20241;-83
2022/01/02 15:08:46;;;;;;;2.60;2.20;;;;;;;18.40;36.96;98844.25;6759806;29;20216;-82
2022/01/02 15:12:07;;;;;;;3.43;2.13;;;;;;;18.27;36.96;98861.00;6759815;29;20703;-82
2022/01/02 15:15:31;;;;;;;2.53;2.33;;;;;;;18.81;35.88;98843.66;6758348;29;20213;-81
2022/01/02 15:18:53;;;;;;;3.50;2.77;;;;;;;18.61;36.00;98835.22;6759640;29;20207;-82
2022/01/02 15:22:14;;;;;;;3.00;2.10;;;;;;;18.42;36.59;98842.94;6759901;29;20451;-82
2022/01/02 15:25:36;;;;;;;4.27;2.30;;;;;;;18.65;36.76;98850.88;6758222;29;20235;-82
2022/01/02 15:28:58;;;;;;;2.27;2.00;;;;;;;17.90;36.52;98750.78;6755776;29;20259;-81
2022/01/02 15:32:21;;;;;;;2.50;2.30;;;;;;;18.80;36.34;98853.75;6758911;29;20239;-82
2022/01/02 15:35:42;;;;;;;3.70;2.50;;;;;;;18.89;36.11;98854.94;6758611;29;20211;-81
2022/01/02 15:39:04;;;;;;;2.47;2.27;;;;;;;18.73;35.76;98834.00;6758909;29;20582;-81
2022/01/02 15:42:26;;;;;;;3.53;2.60;;;;;;;18.88;36.01;98869.66;6758256;29;20258;-82
2022/01/02 15:45:47;;;;;;;4.27;2.60;;;;;;;18.70;36.74;98885.59;6758124;29;20239;-81
2022/01/02 15:49:12;;;;;;;2.80;2.50;;;;;;;18.34;37.45;98839.81;6758868;29;20235;-81
2022/01/02 15:52:34;;;;;;;3.27;2.30;;;;;;;18.81;36.87;98876.44;6758884;29;20225;-81
2022/01/02 15:55:55;;;;;;;2.40;2.20;;;;;;;18.87;36.93;98872.69;6758416;29;20886;-81
2022/01/02 15:59:17;;;;;;;3.60;2.60;;;;;;;18.59;37.16;98876.47;6756883;29;20218;-82
2022/01/02 16:02:39;;;;;;;4.40;3.77;;;;;;;18.39;37.25;98835.22;6755865;29;20230;-81
2022/01/02 16:06:02;;;;;;;3.90;3.00;;;;;;;18.15;37.85;98831.06;6757724;29;20237;-83
2022/01/02 16:09:24;;;;;;;5.33;3.23;;;;;;;18.15;37.69;98890.28;6743365;29;20206;-82
2022/01/02 16:12:45;;;;;;;16.80;15.13;;;;;;;18.27;38.06;98878.19;6757689;29;20226;-82
2022/01/02 16:16:07;;;;;;;4.30;3.87;;;;;;;18.04;38.57;98874.84;6745386;29;20684;-82
2022/01/02 16:19:28;;;;;;;4.70;3.10;;;;;;;17.97;38.38;98828.63;6751325;29;20210;-81
2022/01/02 16:22:52;;;;;;;8.83;5.40;;;;;;;17.89;39.45;98907.34;6753826;29;20258;-81
2022/01/02 16:26:13;;;;;;;16.67;12.70;;;;;;;17.89;39.80;98907.34;6752395;29;20225;-82
2022/01/02 16:29:35;;;;;;;7.80;6.80;;;;;;;17.09;41.33;98911.38;6748863;29;20213;-83
2022/01/02 16:32:57;;;;;;;9.93;6.70;;;;;;;17.17;41.23;98876.38;6817561;23;20250;-82
2022/01/02 16:36:19;;;;;;;5.20;4.20;;;;;;;16.34;42.93;98877.16;6808741;29;20213;-80
2022/01/02 16:39:43;;;;;;;4.83;3.97;;;;;;;16.87;42.52;98897.59;6813943;29;20271;-81
2022/01/02 16:43:05;;;;;;;8.33;5.77;;;;;;;16.76;43.15;98909.38;6794178;29;20208;-80
2022/01/02 16:46:27;;;;;;;7.33;6.20;;;;;;;16.73;43.20;98909.03;6795630;29;20238;-92
2022/01/02 16:49:50;;;;;;;10.07;7.90;;;;;;;16.96;42.78;98907.06;6796120;29;20208;-92
2022/01/02 16:53:12;;;;;;;11.27;5.73;;;;;;;16.43;43.58;98924.72;6795595;29;20207;-92
2022/01/02 16:56:44;;;;;;;14.60;11.20;;;;;;;16.36;44.58;98937.59;6793414;29;20207;-86
2022/01/02 17:00:09;;;;;;;10.33;8.60;;;;;;;15.18;46.35;98879.00;6793046;29;20216;-92
2022/01/02 17:03:30;;;;;;;55.03;31.70;;;;;;;15.84;46.37;98909.50;6814900;29;20217;-83
2022/01/02 17:06:52;;;;;;;7.80;5.43;;;;;;;15.33;46.69;98901.16;6819109;29;20217;-81
2022/01/02 17:10:15;;;;;;;10.50;7.17;;;;;;;15.58;46.46;98931.66;6818476;29;20571;-82
2022/01/02 17:13:38;;;;;;;7.60;5.77;;;;;;;15.55;46.72;98934.03;6815479;29;20668;-82
2022/01/02 17:17:02;;;;;;;7.87;6.23;;;;;;;14.91;48.25;98937.47;6818394;28;20225;-86
2022/01/02 17:21:08;;;;;;;7.57;6.07;;;;;;;14.39;47.71;98845.88;6826240;28;20599;-96
2022/01/02 17:24:34;;;;;;;6.23;5.13;;;;;;;15.10;47.36;98905.66;6835634;28;20242;-95
2022/01/02 17:28:16;;;;;;;6.70;5.47;;;;;;;14.88;47.91;98959.66;6823429;29;20216;-92
2022/01/02 17:32:08;;;;;;;5.53;4.97;;;;;;;15.09;47.90;98980.03;6821329;28;20230;-95
2022/01/02 17:44:06;;;;;;;7.77;5.10;;;;;;;14.50;48.97;98974.50;6776795;29;20231;-92
2022/01/02 17:47:30;;;;;;;8.63;4.93;;;;;;;14.48;49.13;98955.75;6777816;29;20215;-90
2022/01/02 17:50:52;;;;;;;6.67;5.77;;;;;;;14.56;48.22;98960.88;6775161;29;20215;-91
2022/01/02 17:54:14;;;;;;;8.60;6.80;;;;;;;14.28;48.41;98948.88;6774721;29;20219;-91
2022/01/02 18:01:33;;;;;;;9.13;7.70;;;;;;;14.29;48.86;98966.81;6771394;29;20270;-82
2022/01/02 18:09:19;;;;;;;10.43;8.40;;;;;;;14.41;48.60;99040.97;6783483;23;20180;-85
2022/01/02 18:12:41;;;;;;;12.17;8.83;;;;;;;13.94;49.58;99001.75;6744242;29;20235;-88
2022/01/02 18:16:03;;;;;;;12.13;7.80;;;;;;;13.94;49.51;98990.91;6741840;29;20205;-85
2022/01/02 18:19:25;;;;;;;10.90;7.83;;;;;;;13.95;49.65;99016.13;6756402;29;20208;-84
2022/01/02 18:22:47;;;;;;;18.13;10.40;;;;;;;13.66;50.44;99008.63;6746147;29;20228;-86
2022/01/02 18:26:10;;;;;;;12.63;9.43;;;;;;;12.73;52.93;98989.56;6743406;29;20227;-86
2022/01/02 18:29:34;;;;;;;14.67;10.47;;;;;;;12.96;52.55;98973.66;6733975;29;20205;-86
2022/01/02 18:32:56;;;;;;;12.73;8.63;;;;;;;12.73;53.45;98963.34;6723554;29;20233;-86
2022/01/02 18:36:21;;;;;;;16.63;11.23;;;;;;;12.38;54.62;98959.31;6725746;29;20220;-85
2022/01/02 18:39:45;;;;;;;14.37;10.67;;;;;;;12.59;53.93;98969.00;6742053;29;20189;-85
2022/01/02 18:43:08;;;;;;;11.67;7.47;;;;;;;11.97;54.96;98960.63;6741889;29;20688;-85
2022/01/02 18:46:30;;;;;;;15.67;9.43;;;;;;;12.05;55.23;98950.44;6740459;29;20232;-84
2022/01/02 18:49:51;;;;;;;11.10;7.97;;;;;;;12.22;55.33;98980.56;6741093;29;20209;-85
2022/01/02 18:53:13;;;;;;;12.30;8.43;;;;;;;12.06;55.16;98941.31;6740986;29;20235;-85
2022/01/02 18:56:53;;;;;;;12.30;8.70;;;;;;;12.09;55.37;98954.38;6739032;29;20220;-85
2022/01/02 19:00:17;;;;;;;12.50;8.30;;;;;;;12.16;55.24;98957.09;6741209;29;20208;-87
2022/01/02 19:03:38;;;;;;;9.80;6.87;;;;;;;12.16;55.38;98984.94;6728615;29;20209;-84
2022/01/02 19:07:00;;;;;;;11.97;8.60;;;;;;;11.55;56.40;98996.16;6741688;29;20211;-84
2022/01/02 19:10:21;;;;;;;9.93;7.80;;;;;;;11.61;56.53;98985.41;6743145;29;20236;-84
2022/01/02 19:13:43;;;;;;;9.77;7.97;;;;;;;11.84;56.54;99001.19;6742056;29;20212;-86
2022/01/02 19:17:06;;;;;;;9.07;6.63;;;;;;;11.86;56.00;98993.72;6742508;29;20879;-85
2022/01/02 19:20:28;;;;;;;7.10;5.70;;;;;;;11.74;56.02;98966.47;6737519;29;20215;-85
2022/01/02 19:23:53;;;;;;;9.37;6.50;;;;;;;11.71;56.57;98975.03;6716305;29;20257;-85
2022/01/02 19:27:14;;;;;;;7.93;6.10;;;;;;;11.58;56.62;98990.34;6717155;29;20291;-84
2022/01/02 19:30:36;;;;;;;10.03;7.10;;;;;;;11.46;56.78;98990.13;6716163;29;20252;-86
2022/01/02 19:34:06;;;;;;;9.30;7.23;;;;;;;10.89;58.99;98994.34;6736007;29;20238;-84
2022/01/02 19:37:28;;;;;;;12.53;7.53;;;;;;;11.56;57.68;99008.66;6740507;29;20192;-85
2022/01/02 19:40:50;;;;;;;8.83;6.80;;;;;;;11.66;57.29;98946.97;6741002;29;20319;-85
2022/01/02 19:44:11;;;;;;;8.63;5.93;;;;;;;11.97;56.39;98984.94;6740736;29;20261;-86
2022/01/02 19:47:44;;;;;;;8.83;6.40;;;;;;;11.35;59.29;98995.31;6741283;29;20658;-86
2022/01/02 19:51:07;;;;;;;7.60;6.67;;;;;;;12.20;56.59;98982.63;6741722;29;20720;-84
2022/01/02 19:54:29;;;;;;;5.80;5.07;;;;;;;12.16;56.10;98966.00;6738933;29;20208;-85
2022/01/02 19:57:51;;;;;;;7.30;5.63;;;;;;;12.14;56.25;98965.41;6739423;29;20215;-86
2022/01/02 20:01:13;;;;;;;11.07;5.43;;;;;;;12.25;55.97;98966.63;6730997;29;20221;-86
2022/01/02 20:04:34;;;;;;;6.93;5.00;;;;;;;12.24;55.83;98967.66;6713816;29;20238;-85
2022/01/02 20:07:57;;;;;;;6.23;5.07;;;;;;;12.11;56.75;98952.28;6714616;29;20219;-85
2022/01/02 20:11:19;;;;;;;5.57;4.70;;;;;;;12.24;56.92;98960.41;6715147;29;20241;-86
2022/01/02 20:14:41;;;;;;;5.57;4.70;;;;;;;12.46;56.03;98958.25;6715470;29;20216;-84
2022/01/02 20:18:03;;;;;;;6.27;5.07;;;;;;;12.40;56.17;98973.44;6715628;29;20689;-85
2022/01/02 20:21:25;;;;;;;6.47;5.10;;;;;;;12.17;57.44;98967.66;6714917;29;20237;-85
2022/01/02 20:24:48;;;;;;;6.00;5.10;;;;;;;12.19;56.57;98960.19;6714940;29;20240;-84
2022/01/02 20:28:11;;;;;;;7.20;4.93;;;;;;;12.48;55.89;98937.22;6715952;29;20219;-84
2022/01/02 20:31:33;;;;;;;5.93;4.60;;;;;;;11.85;56.95;98955.06;6715763;29;20236;-84
2022/01/02 20:34:55;;;;;;;8.10;5.80;;;;;;;11.52;59.18;98973.09;6714731;29;20220;-85
2022/01/02 20:38:16;;;;;;;7.03;6.00;;;;;;;12.20;57.27;98934.81;6715281;29;20216;-85
2022/01/02 20:41:39;;;;;;;6.20;5.10;;;;;;;11.80;58.57;98941.34;6714539;29;20232;-82
2022/01/02 20:45:01;;;;;;;8.30;6.10;;;;;;;12.25;57.78;98969.31;6715029;29;20252;-84
2022/01/02 20:48:23;;;;;;;7.33;5.13;;;;;;;12.46;57.45;98969.88;6714675;29;20205;-85